Time;durP1;ratioP1;P1;durP2;ratioP2;P2;SDS_P1;SDS_P2;PMS_P1;PMS_P2;Temp;Humidity;BMP_temperature;BMP_pressure;BME280_temperature;BME280_humidity;BME280_pressure;Samples;Min_cycle;Max_cycle;Signal;HPM_P1;HPM_P2
2022/09/01 00:04:40;;;;;;;;;;;;;;;;;;10501739;28;20387;-63
2022/09/01 00:09:42;;;;;;;;;;;;;;;;;;10499482;28;20399;-63
2022/09/01 00:14:44;;;;;;;;;;;;;;;;;;10501274;28;19924;-63
2022/09/01 00:19:46;;;;;;;;;;;;;;;;;;10500748;28;19924;-63
2022/09/01 00:24:48;;;;;;;;;;;;;;;;;;10500886;28;20283;-63
2022/09/01 00:29:50;;;;;;;;;;;;;;;;;;10498499;28;20375;-63
2022/09/01 00:34:53;;;;;;;;;;;;;;;;;;10501169;28;19924;-63
2022/09/01 00:39:55;;;;;;;;;;;;;;;;;;10499392;28;19931;-63
2022/09/01 00:44:57;;;;;;;;;;;;;;;;;;10500742;28;19936;-63
2022/09/01 00:49:59;;;;;;;;;;;;;;;;;;10498033;28;19931;-63
2022/09/01 00:55:01;;;;;;;;;;;;;;;;;;10500403;28;19925;-63
2022/09/01 01:00:03;;;;;;;;;;;;;;;;;;10498944;28;19931;-63
2022/09/01 01:05:05;;;;;;;;;;;;;;;;;;10497818;28;19924;-63
2022/09/01 01:10:08;;;;;;;;;;;;;;;;;;10497713;28;19935;-63
2022/09/01 01:15:11;;;;;;;;;;;;;;;;;;10498430;28;20408;-63
2022/09/01 01:25:34;;;;;;;;;;;;;;;;;;10497464;28;19925;-62
2022/09/01 01:30:36;;;;;;;;;;;;;;;;;;10498346;28;19924;-62
2022/09/01 01:35:38;;;;;;;;;;;;;;;;;;10498532;28;19951;-62
2022/09/01 01:40:41;;;;;;;;;;;;;;;;;;10498328;28;20003;-62
2022/09/01 01:45:43;;;;;;;;;;;;;;;;;;10497774;28;19928;-63
2022/09/01 01:50:47;;;;;;;;;;;;;;;;;;10497849;28;20016;-63
2022/09/01 01:55:49;;;;;;;;;;;;;;;;;;10498727;28;19928;-62
2022/09/01 02:00:51;;;;;;;;;;;;;;;;;;10496484;28;19932;-63
2022/09/01 02:05:54;;;;;;;;;;;;;;;;;;10480622;28;19925;-62
2022/09/01 02:10:58;;;;;;;;;;;;;;;;;;10495269;28;19925;-63
2022/09/01 02:16:01;;;;;;;;;;;;;;;;;;10496920;28;19924;-63
2022/09/01 02:21:05;;;;;;;;;;;;;;;;;;10494736;28;19932;-62
2022/09/01 02:26:10;;;;;;;;;;;;;;;;;;10501832;28;19928;-62
2022/09/01 02:31:19;;;;;;;;;;;;;;;;;;10496577;28;19924;-62
2022/09/01 02:36:23;;;;;;;;;;;;;;;;;;10506118;28;19925;-62
2022/09/01 02:41:31;;;;;;;;;;;;;;;;;;10502440;28;19975;-63
2022/09/01 02:46:33;;;;;;;;;;;;;;;;;;10505464;28;19924;-63
2022/09/01 02:51:36;;;;;;;;;;;;;;;;;;10502902;28;19931;-63
2022/09/01 02:56:38;;;;;;;;;;;;;;;;;;10504817;28;19935;-62
2022/09/01 03:01:40;;;;;;;;;;;;;;;;;;10502260;28;19930;-62
2022/09/01 03:06:42;;;;;;;;;;;;;;;;;;10504656;28;19925;-62
2022/09/01 03:11:44;;;;;;;;;;;;;;;;;;10502088;28;19925;-62
2022/09/01 03:16:46;;;;;;;;;;;;;;;;;;10504423;28;19931;-62
2022/09/01 03:21:48;;;;;;;;;;;;;;;;;;10503132;28;19928;-62
2022/09/01 03:26:51;;;;;;;;;;;;;;;;;;10502994;28;19924;-62
2022/09/01 03:31:53;;;;;;;;;;;;;;;;;;10502512;28;19947;-62
2022/09/01 03:36:55;;;;;;;;;;;;;;;;;;10502932;28;19954;-62
2022/09/01 03:41:58;;;;;;;;;;;;;;;;;;10502409;28;19935;-62
2022/09/01 03:47:00;;;;;;;;;;;;;;;;;;10501534;28;20314;-62
2022/09/01 03:52:02;;;;;;;;;;;;;;;;;;10502253;28;19925;-62
2022/09/01 03:57:05;;;;;;;;;;;;;;;;;;10501894;28;19924;-62
2022/09/01 04:02:07;;;;;;;;;;;;;;;;;;10501578;28;19928;-62
2022/09/01 04:07:10;;;;;;;;;;;;;;;;;;10500975;28;20394;-62
2022/09/01 04:12:14;;;;;;;;;;;;;;;;;;10500633;28;19924;-62
2022/09/01 04:22:37;;;;;;;;;;;;;;;;;;10500544;28;19925;-62
2022/09/01 04:27:39;;;;;;;;;;;;;;;;;;10500145;28;20303;-62
2022/09/01 04:32:45;;;;;;;;;;;;;;;;;;10500391;28;19931;-61
2022/09/01 04:37:48;;;;;;;;;;;;;;;;;;10501180;28;19959;-62
2022/09/01 04:42:50;;;;;;;;;;;;;;;;;;10499223;28;20380;-61
2022/09/01 04:47:52;;;;;;;;;;;;;;;;;;10499350;28;19932;-62
2022/09/01 04:52:56;;;;;;;;;;;;;;;;;;10498204;28;19947;-62
2022/09/01 04:57:59;;;;;;;;;;;;;;;;;;10500314;28;19931;-62
2022/09/01 05:03:03;;;;;;;;;;;;;;;;;;10496684;28;19925;-62
2022/09/01 05:08:05;;;;;;;;;;;;;;;;;;10499900;28;19970;-62
2022/09/01 05:13:08;;;;;;;;;;;;;;;;;;10498159;28;20288;-62
2022/09/01 05:18:11;;;;;;;;;;;;;;;;;;10472415;22;19928;-62
2022/09/01 05:23:14;;;;;;;;;;;;;;;;;;10457037;28;19931;-62
2022/09/01 05:28:17;;;;;;;;;;;;;;;;;;10456994;28;19932;-62
2022/09/01 05:33:20;;;;;;;;;;;;;;;;;;10456969;28;19925;-62
2022/09/01 05:38:24;;;;;;;;;;;;;;;;;;10457914;28;19925;-62
2022/09/01 05:43:29;;;;;;;;;;;;;;;;;;10455203;28;20403;-62
2022/09/01 05:48:38;;;;;;;;;;;;;;;;;;10455256;28;19932;-62
2022/09/01 05:53:41;;;;;;;;;;;;;;;;;;10415513;28;20008;-62
2022/09/01 05:58:45;;;;;;;;;;;;;;;;;;10415383;28;19932;-62
2022/09/01 06:04:07;;;;;;;;;;;;;;;;;;10464490;28;19925;-62
2022/09/01 06:09:09;;;;;;;;;;;;;;;;;;10465524;28;19929;-62
2022/09/01 06:14:11;;;;;;;;;;;;;;;;;;10465387;28;19931;-62
2022/09/01 06:19:14;;;;;;;;;;;;;;;;;;10464647;28;20356;-61
2022/09/01 06:24:16;;;;;;;;;;;;;;;;;;10464525;28;19925;-62
2022/09/01 06:29:19;;;;;;;;;;;;;;;;;;10464054;28;19928;-62
2022/09/01 06:34:21;;;;;;;;;;;;;;;;;;10464010;28;19931;-62
2022/09/01 06:39:25;;;;;;;;;;;;;;;;;;10463469;28;19927;-62
2022/09/01 06:44:29;;;;;;;;;;;;;;;;;;10461747;28;19964;-62
2022/09/01 06:49:31;;;;;;;;;;;;;;;;;;10463450;28;19925;-62
2022/09/01 06:54:34;;;;;;;;;;;;;;;;;;10460061;28;20391;-62
2022/09/01 06:59:36;;;;;;;;;;;;;;;;;;10459306;28;19925;-62
2022/09/01 07:04:41;;;;;;;;;;;;;;;;;;10454800;28;19925;-62
2022/09/01 07:09:46;;;;;;;;;;;;;;;;;;10463326;28;19925;-62
2022/09/01 07:15:06;;;;;;;;;;;;;;;;;;10460277;28;19924;-62
2022/09/01 07:20:32;;;;;;;;;;;;;;;;;;10462680;28;20087;-62
2022/09/01 07:25:37;;;;;;;;;;;;;;;;;;10461858;28;20376;-62
2022/09/01 07:31:00;;;;;;;;;;;;;;;;;;10420957;28;20323;-62
2022/09/01 07:36:22;;;;;;;;;;;;;;;;;;10460100;28;19925;-62
2022/09/01 07:41:28;;;;;;;;;;;;;;;;;;10460295;28;19994;-62
2022/09/01 07:46:50;;;;;;;;;;;;;;;;;;10461618;28;19928;-62
2022/09/01 07:52:12;;;;;;;;;;;;;;;;;;10459222;28;19994;-62
2022/09/01 07:57:15;;;;;;;;;;;;;;;;;;10460452;28;20403;-63
2022/09/01 08:02:17;;;;;;;;;;;;;;;;;;10460332;28;19929;-63
2022/09/01 08:07:19;;;;;;;;;;;;;;;;;;10461015;28;19947;-63
2022/09/01 08:12:21;;;;;;;;;;;;;;;;;;10443262;28;19932;-63
2022/09/01 08:17:29;;;;;;;;;;;;;;;;;;10459073;28;20280;-63
2022/09/01 08:22:51;;;;;;;;;;;;;;;;;;10457908;28;19929;-63
2022/09/01 08:27:53;;;;;;;;;;;;;;;;;;10440814;28;20376;-63
2022/09/01 08:33:02;;;;;;;;;;;;;;;;;;10460060;28;20003;-63
2022/09/01 08:38:12;;;;;;;;;;;;;;;;;;10443123;28;19972;-63
2022/09/01 08:43:14;;;;;;;;;;;;;;;;;;10458019;28;19967;-65
2022/09/01 08:48:16;;;;;;;;;;;;;;;;;;10457607;28;19932;-64
2022/09/01 08:53:38;;;;;;;;;;;;;;;;;;10458510;28;19928;-65
2022/09/01 08:58:40;;;;;;;;;;;;;;;;;;10459102;28;19932;-64
2022/09/01 09:03:43;;;;;;;;;;;;;;;;;;10457856;28;19964;-65
2022/09/01 09:08:45;;;;;;;;;;;;;;;;;;10459188;28;19932;-64
2022/09/01 09:13:47;;;;;;;;;;;;;;;;;;10457805;28;19925;-65
2022/09/01 09:18:49;;;;;;;;;;;;;;;;;;10457509;28;19929;-64
2022/09/01 09:23:58;;;;;;;;;;;;;;;;;;10457311;28;19960;-65
2022/09/01 09:29:01;;;;;;;;;;;;;;;;;;10456169;28;20295;-65
2022/09/01 09:34:03;;;;;;;;;;;;;;;;;;10457124;28;19931;-65
2022/09/01 09:39:05;;;;;;;;;;;;;;;;;;10456716;28;20292;-65
2022/09/01 09:44:07;;;;;;;;;;;;;;;;;;10457511;28;20399;-65
2022/09/01 09:49:12;;;;;;;;;;;;;;;;;;10456767;28;20904;-67
2022/09/01 09:54:14;;;;;;;;;;;;;;;;;;10456742;28;20287;-67
2022/09/01 09:59:16;;;;;;;;;;;;;;;;;;10456696;28;20295;-67
2022/09/01 10:04:30;;;;;;;;;;;;;;;;;;10457193;28;19963;-68
2022/09/01 10:09:32;;;;;;;;;;;;;;;;;;10456434;28;19925;-67
2022/09/01 10:14:34;;;;;;;;;;;;;;;;;;10456114;28;19932;-67
2022/09/01 10:19:54;;;;;;;;;;;;;;;;;;10456853;28;20016;-68
2022/09/01 10:24:56;;;;;;;;;;;;;;;;;;10456733;28;19924;-67
2022/09/01 10:29:58;;;;;;;;;;;;;;;;;;10455531;28;19925;-68
2022/09/01 10:35:22;;;;;;;;;;;;;;;;;;10455906;28;20265;-68
2022/09/01 10:40:27;;;;;;;;;;;;;;;;;;10456485;28;19931;-67
2022/09/01 10:45:32;;;;;;;;;;;;;;;;;;10457454;28;19924;-68
2022/09/01 10:50:35;;;;;;;;;;;;;;;;;;10462479;28;19932;-68
2022/09/01 10:55:37;;;;;;;;;;;;;;;;;;10425103;28;19933;-68
2022/09/01 11:00:39;;;;;;;;;;;;;;;;;;10434109;28;19929;-69
2022/09/01 11:05:41;;;;;;;;;;;;;;;;;;10462483;28;19972;-69
2022/09/01 11:10:43;;;;;;;;;;;;;;;;;;10462867;28;19924;-69
2022/09/01 11:15:45;;;;;;;;;;;;;;;;;;10459223;28;20012;-69
2022/09/01 11:20:47;;;;;;;;;;;;;;;;;;10462347;28;19947;-69
2022/09/01 11:25:50;;;;;;;;;;;;;;;;;;10441913;28;19939;-70
2022/09/01 11:31:14;;;;;;;;;;;;;;;;;;10458856;28;20082;-70
2022/09/01 11:36:17;;;;;;;;;;;;;;;;;;10461761;28;19924;-70
2022/09/01 11:41:22;;;;;;;;;;;;;;;;;;10459876;28;19929;-70
2022/09/01 11:46:24;;;;;;;;;;;;;;;;;;10461021;28;20016;-70
2022/09/01 11:51:27;;;;;;;;;;;;;;;;;;10461825;28;19931;-70
2022/09/01 11:56:29;;;;;;;;;;;;;;;;;;10461460;28;19925;-70
2022/09/01 12:01:31;;;;;;;;;;;;;;;;;;10460271;28;19929;-71
2022/09/01 12:06:34;;;;;;;;;;;;;;;;;;10460504;28;19932;-70
2022/09/01 12:11:36;;;;;;;;;;;;;;;;;;10460988;28;19925;-70
2022/09/01 12:16:40;;;;;;;;;;;;;;;;;;10460332;28;19940;-70
2022/09/01 12:21:43;;;;;;;;;;;;;;;;;;10461062;28;19951;-71
2022/09/01 12:26:45;;;;;;;;;;;;;;;;;;10460388;28;20355;-71
2022/09/01 12:31:47;;;;;;;;;;;;;;;;;;10460301;28;19925;-72
2022/09/01 12:36:49;;;;;;;;;;;;;;;;;;10460560;28;19929;-71
2022/09/01 12:41:51;;;;;;;;;;;;;;;;;;10459225;28;20282;-71
2022/09/01 12:46:53;;;;;;;;;;;;;;;;;;10459545;28;19940;-71
2022/09/01 12:51:56;;;;;;;;;;;;;;;;;;10458820;28;20317;-71
2022/09/01 12:56:58;;;;;;;;;;;;;;;;;;10458647;28;19924;-72
2022/09/01 13:02:00;;;;;;;;;;;;;;;;;;10459100;28;19935;-71
2022/09/01 13:07:02;;;;;;;;;;;;;;;;;;10458128;28;20351;-72
2022/09/01 13:12:04;;;;;;;;;;;;;;;;;;10457210;28;19947;-72
2022/09/01 13:17:08;;;;;;;;;;;;;;;;;;10458157;28;19971;-71
2022/09/01 13:22:14;;;;;;;;;;;;;;;;;;10457733;28;19924;-71
2022/09/01 13:27:17;;;;;;;;;;;;;;;;;;10457448;28;19924;-72
2022/09/01 13:32:23;;;;;;;;;;;;;;;;;;10459489;28;19964;-71
2022/09/01 13:37:25;;;;;;;;;;;;;;;;;;10457859;28;19960;-73
2022/09/01 13:42:27;;;;;;;;;;;;;;;;;;10457711;28;19925;-72
2022/09/01 13:47:29;;;;;;;;;;;;;;;;;;10457592;28;19929;-72
2022/09/01 13:52:32;;;;;;;;;;;;;;;;;;10457465;28;19925;-72
2022/09/01 13:57:34;;;;;;;;;;;;;;;;;;10457738;28;19931;-72
2022/09/01 14:02:37;;;;;;;;;;;;;;;;;;10439095;28;20448;-72
2022/09/01 14:07:39;;;;;;;;;;;;;;;;;;10456994;28;19924;-72
2022/09/01 14:12:41;;;;;;;;;;;;;;;;;;10444561;28;19924;-72
2022/09/01 14:17:43;;;;;;;;;;;;;;;;;;10450666;28;20283;-72
2022/09/01 14:22:45;;;;;;;;;;;;;;;;;;10461132;28;20389;-72
2022/09/01 14:27:48;;;;;;;;;;;;;;;;;;10465222;28;19932;-72
2022/09/01 14:32:51;;;;;;;;;;;;;;;;;;10463101;28;20280;-72
2022/09/01 14:37:53;;;;;;;;;;;;;;;;;;10461757;28;19925;-71
2022/09/01 14:42:55;;;;;;;;;;;;;;;;;;10462051;28;20017;-71
2022/09/01 14:47:57;;;;;;;;;;;;;;;;;;10464226;28;19932;-71
2022/09/01 14:52:59;;;;;;;;;;;;;;;;;;10463078;28;19932;-71
2022/09/01 14:58:02;;;;;;;;;;;;;;;;;;10462793;28;19925;-71
2022/09/01 15:03:04;;;;;;;;;;;;;;;;;;10463048;28;20371;-71
2022/09/01 15:08:06;;;;;;;;;;;;;;;;;;10461871;28;20394;-71
2022/09/01 15:13:08;;;;;;;;;;;;;;;;;;10461648;28;20302;-71
2022/09/01 15:18:10;;;;;;;;;;;;;;;;;;10462782;28;19929;-71
2022/09/01 15:23:12;;;;;;;;;;;;;;;;;;10462784;28;19960;-71
2022/09/01 15:28:15;;;;;;;;;;;;;;;;;;10462055;28;19931;-70
2022/09/01 15:33:17;;;;;;;;;;;;;;;;;;10460290;28;19925;-71
2022/09/01 15:38:19;;;;;;;;;;;;;;;;;;10461315;28;19932;-71
2022/09/01 15:43:21;;;;;;;;;;;;;;;;;;10462029;28;19924;-70
2022/09/01 15:48:23;;;;;;;;;;;;;;;;;;10461716;28;19930;-70
2022/09/01 15:53:26;;;;;;;;;;;;;;;;;;10457231;28;20384;-70
2022/09/01 15:58:28;;;;;;;;;;;;;;;;;;10461369;28;19932;-70
2022/09/01 16:03:40;;;;;;;;;;;;;;;;;;10461812;28;19929;-70
2022/09/01 16:08:42;;;;;;;;;;;;;;;;;;10456854;28;19932;-70
2022/09/01 16:13:44;;;;;;;;;;;;;;;;;;10458252;28;19924;-70
2022/09/01 16:18:46;;;;;;;;;;;;;;;;;;10453959;28;19925;-70
2022/09/01 16:23:48;;;;;;;;;;;;;;;;;;10459907;28;19925;-69
2022/09/01 16:28:50;;;;;;;;;;;;;;;;;;10459692;28;19935;-69
2022/09/01 16:33:55;;;;;;;;;;;;;;;;;;10458029;28;19933;-69
2022/09/01 16:38:57;;;;;;;;;;;;;;;;;;10400524;28;20383;-70
2022/09/01 16:43:59;;;;;;;;;;;;;;;;;;10418453;28;19925;-69
2022/09/01 16:49:02;;;;;;;;;;;;;;;;;;10418268;28;19929;-69
2022/09/01 16:54:04;;;;;;;;;;;;;;;;;;10454633;28;19932;-69
2022/09/01 16:59:06;;;;;;;;;;;;;;;;;;10459191;28;19931;-68
2022/09/01 17:04:08;;;;;;;;;;;;;;;;;;10457340;28;20011;-69
2022/09/01 17:09:11;;;;;;;;;;;;;;;;;;10458108;28;19928;-68
2022/09/01 17:14:14;;;;;;;;;;;;;;;;;;10455272;28;19931;-68
2022/09/01 17:19:16;;;;;;;;;;;;;;;;;;10440138;28;19932;-68
2022/09/01 17:24:18;;;;;;;;;;;;;;;;;;10457960;28;19931;-69
2022/09/01 17:29:23;;;;;;;;;;;;;;;;;;10472684;22;19927;-64
2022/09/01 17:34:25;;;;;;;;;;;;;;;;;;10499455;28;19925;-64
2022/09/01 17:39:27;;;;;;;;;;;;;;;;;;10499148;28;19931;-64
2022/09/01 17:44:32;;;;;;;;;;;;;;;;;;10498506;28;20371;-64
2022/09/01 17:49:34;;;;;;;;;;;;;;;;;;10499015;28;19932;-64
2022/09/01 17:54:36;;;;;;;;;;;;;;;;;;10498263;28;19924;-64
2022/09/01 17:59:39;;;;;;;;;;;;;;;;;;10498648;28;19931;-64
2022/09/01 18:04:41;;;;;;;;;;;;;;;;;;10498077;28;19951;-64
2022/09/01 18:09:44;;;;;;;;;;;;;;;;;;10497921;28;20367;-64
2022/09/01 18:14:46;;;;;;;;;;;;;;;;;;10498514;28;19924;-64
2022/09/01 18:19:48;;;;;;;;;;;;;;;;;;10498395;28;19924;-64
2022/09/01 18:24:50;;;;;;;;;;;;;;;;;;10497593;28;19932;-64
2022/09/01 18:29:53;;;;;;;;;;;;;;;;;;10497281;28;19936;-63
2022/09/01 18:34:55;;;;;;;;;;;;;;;;;;10498058;28;19924;-63
2022/09/01 18:39:57;;;;;;;;;;;;;;;;;;10496951;28;19924;-63
2022/09/01 18:45:04;;;;;;;;;;;;;;;;;;10497126;28;19925;-63
2022/09/01 18:50:06;;;;;;;;;;;;;;;;;;10496676;28;20367;-64
2022/09/01 18:55:08;;;;;;;;;;;;;;;;;;10498408;28;19925;-64
2022/09/01 19:00:11;;;;;;;;;;;;;;;;;;10497565;28;19928;-64
2022/09/01 19:05:19;;;;;;;;;;;;;;;;;;10497842;28;19924;-64
2022/09/01 19:10:21;;;;;;;;;;;;;;;;;;10503138;28;19931;-64
2022/09/01 19:15:24;;;;;;;;;;;;;;;;;;10505683;28;19928;-64
2022/09/01 19:20:26;;;;;;;;;;;;;;;;;;10504073;28;19955;-64
2022/09/01 19:25:37;;;;;;;;;;;;;;;;;;10505847;28;19932;-64
2022/09/01 19:30:40;;;;;;;;;;;;;;;;;;10519379;28;19931;-64
2022/09/01 19:35:43;;;;;;;;;;;;;;;;;;10503869;28;19924;-63
2022/09/01 19:40:46;;;;;;;;;;;;;;;;;;10503837;28;19924;-63
2022/09/01 19:45:51;;;;;;;;;;;;;;;;;;10505390;28;19932;-63
2022/09/01 19:50:53;;;;;;;;;;;;;;;;;;10503419;28;20417;-63
2022/09/01 19:55:55;;;;;;;;;;;;;;;;;;10502594;28;20363;-63
2022/09/01 20:00:57;;;;;;;;;;;;;;;;;;10502385;28;19925;-63
2022/09/01 20:05:59;;;;;;;;;;;;;;;;;;10503016;28;20291;-63
2022/09/01 20:11:04;;;;;;;;;;;;;;;;;;10501484;28;19931;-63
2022/09/01 20:16:07;;;;;;;;;;;;;;;;;;10503343;28;20008;-64
2022/09/01 20:21:10;;;;;;;;;;;;;;;;;;10501695;28;20344;-63
2022/09/01 20:26:22;;;;;;;;;;;;;;;;;;10500782;28;20016;-63
2022/09/01 20:31:24;;;;;;;;;;;;;;;;;;10500824;28;19928;-63
2022/09/01 20:36:27;;;;;;;;;;;;;;;;;;10505151;28;19925;-63
2022/09/01 20:41:29;;;;;;;;;;;;;;;;;;10509140;28;19924;-63
2022/09/01 20:46:31;;;;;;;;;;;;;;;;;;10505616;28;19932;-63
2022/09/01 20:51:33;;;;;;;;;;;;;;;;;;10500976;28;19932;-63
2022/09/01 20:56:35;;;;;;;;;;;;;;;;;;10500669;28;19931;-63
2022/09/01 21:01:37;;;;;;;;;;;;;;;;;;10499983;28;19931;-63
2022/09/01 21:06:40;;;;;;;;;;;;;;;;;;10500240;28;19933;-63
2022/09/01 21:11:42;;;;;;;;;;;;;;;;;;10499292;28;20291;-63
2022/09/01 21:16:44;;;;;;;;;;;;;;;;;;10500122;28;19924;-63
2022/09/01 21:21:46;;;;;;;;;;;;;;;;;;10499185;28;20421;-63
2022/09/01 21:26:49;;;;;;;;;;;;;;;;;;10499031;28;19931;-63
2022/09/01 21:31:51;;;;;;;;;;;;;;;;;;10497847;28;19932;-62
2022/09/01 21:36:53;;;;;;;;;;;;;;;;;;10498458;28;19932;-63
2022/09/01 21:41:56;;;;;;;;;;;;;;;;;;10498594;28;20417;-62
2022/09/01 21:46:58;;;;;;;;;;;;;;;;;;10498463;28;20003;-63
2022/09/01 21:52:00;;;;;;;;;;;;;;;;;;10497874;28;20291;-63
2022/09/01 21:57:03;;;;;;;;;;;;;;;;;;10497776;28;20272;-62
2022/09/01 22:02:05;;;;;;;;;;;;;;;;;;10498162;28;19924;-62
2022/09/01 22:07:10;;;;;;;;;;;;;;;;;;10514687;28;19972;-63
2022/09/01 22:12:13;;;;;;;;;;;;;;;;;;10498744;28;19925;-63
2022/09/01 22:17:15;;;;;;;;;;;;;;;;;;10498380;28;19932;-62
2022/09/01 22:22:17;;;;;;;;;;;;;;;;;;10497710;28;19932;-63
2022/09/01 22:27:19;;;;;;;;;;;;;;;;;;10496958;28;19939;-62
2022/09/01 22:32:21;;;;;;;;;;;;;;;;;;10497143;28;19925;-62
2022/09/01 22:37:24;;;;;;;;;;;;;;;;;;10498075;28;19936;-62
2022/09/01 22:42:26;;;;;;;;;;;;;;;;;;10500551;28;19924;-62
2022/09/01 22:47:28;;;;;;;;;;;;;;;;;;10505297;28;19924;-62
2022/09/01 22:52:30;;;;;;;;;;;;;;;;;;10504499;28;19924;-62
2022/09/01 22:57:32;;;;;;;;;;;;;;;;;;10506110;28;19925;-62
2022/09/01 23:02:34;;;;;;;;;;;;;;;;;;10505241;28;19935;-62
2022/09/01 23:07:36;;;;;;;;;;;;;;;;;;10495210;28;19925;-62
2022/09/01 23:12:40;;;;;;;;;;;;;;;;;;10466754;28;19928;-62
2022/09/01 23:17:42;;;;;;;;;;;;;;;;;;10505521;28;19925;-62
2022/09/01 23:22:44;;;;;;;;;;;;;;;;;;10503879;28;19985;-62
2022/09/01 23:27:46;;;;;;;;;;;;;;;;;;10503378;28;20295;-62
2022/09/01 23:32:48;;;;;;;;;;;;;;;;;;10503591;28;19924;-62
2022/09/01 23:37:51;;;;;;;;;;;;;;;;;;10502504;28;19932;-62
2022/09/01 23:42:53;;;;;;;;;;;;;;;;;;10504888;28;19932;-62
2022/09/01 23:47:55;;;;;;;;;;;;;;;;;;10503632;28;19929;-62
2022/09/01 23:52:57;;;;;;;;;;;;;;;;;;10502676;28;19924;-62
2022/09/01 23:57:59;;;;;;;;;;;;;;;;;;10502666;28;19925;-62
